Latest Weather Observations for Mount Crawford

IDS60901

Issued at 4:11 pm CST Sunday 11 April 2021 (issued every 10 minutes, with the page automatically refreshed every 10 minutes)

About weather observations | Map of Adelaide area stations | Latest observations for Adelaide area | Other Formats
Station Details ID: 023878 Name: MOUNT CRAWFORD AWS Lat: -34.73 Lon: 138.93 Height: 525.0 m
Data from the previous 72 hours. | See also: Recent months at Mount Crawford
Date/Time
CST
Temp
°C
App
Temp
°C
Dew
Point
°C
Rel
Hum
%
Delta-T
°C
Wind Press
QNH
hPa
Press
MSL
hPa
Rain since
9am
mm
Dir  Spd
km/h
Gust
km/h
Spd
kts
Gust
kts
11/04:00pm 12.3 6.7 3.5 55 4.0 S 22 30 12 16 1023.0 1022.1 0.0
11/03:30pm 12.3 7.5 5.5 63 3.2 S 20 28 11 15 1023.2 1022.2 0.0
11/03:00pm 12.6 7.7 5.1 60 3.6 S 20 32 11 17 1023.2 1022.2 0.0
11/02:30pm 12.8 8.1 3.2 52 4.4 SSW 17 28 9 15 1023.0 1022.1 0.0
11/02:00pm 13.3 8.2 4.2 54 4.3 S 20 28 11 15 1022.8 1021.9 0.0
11/01:30pm 12.7 7.5 3.6 54 4.2 SSW 20 28 11 15 1022.8 1021.9 0.0
11/01:00pm 13.6 6.3 4.5 54 4.3 S 32 39 17 21 1022.9 1022.0 0.0
11/12:30pm 13.6 8.4 3.7 51 4.6 SSW 20 35 11 19 1023.2 1022.2 0.0
11/12:00pm 12.4 6.4 3.6 55 4.0 S 24 32 13 17 1023.5 1022.5 0.0
11/11:30am 12.9 6.7 2.2 48 4.8 S 24 37 13 20 1023.4 1022.4 0.0
11/11:15am 13.1 6.1 1.8 46 5.0 SSW 28 39 15 21 1023.4 1022.4 0.0
11/11:00am 12.6 7.6 3.8 55 4.1 SSW 19 28 10 15 1023.6 1022.6 0.0
11/10:30am 11.6 6.8 5.5 66 2.9 S 20 32 11 17 1023.6 1022.6 0.0
11/10:00am 9.8 5.2 6.5 80 1.6 SSW 20 30 11 16 1023.8 1022.8 0.0
11/09:30am 11.2 6.7 5.9 70 2.5 SSW 19 32 10 17 1023.4 1022.4 0.0
11/09:00am 9.8 4.5 5.0 72 2.2 SSW 22 32 12 17 1023.3 1022.3 1.0
11/08:30am 10.5 4.7 4.2 65 2.9 SSW 24 32 13 17 1022.7 1021.8 1.0
11/08:00am 10.0 4.2 4.2 67 2.7 SW 24 41 13 22 1022.4 1021.5 1.0
11/07:30am 9.7 4.9 4.9 72 2.2 SW 19 30 10 16 1021.9 1020.9 1.0
11/07:00am 9.3 4.1 5.3 76 1.9 SSW 22 32 12 17 1021.6 1020.6 1.0
11/06:30am 9.6 4.3 4.8 72 2.2 SW 22 33 12 18 1021.3 1020.3 1.0
11/06:00am 9.2 3.6 5.6 78 1.7 SSW 24 35 13 19 1020.9 1020.0 1.0
11/05:30am 8.7 4.1 5.8 82 1.4 SSW 19 24 10 13 1020.7 1019.8 1.0
11/05:00am 8.9 2.5 5.3 78 1.7 SSW 28 41 15 22 1020.3 1019.3 1.0
11/04:30am 8.3 3.5 5.6 83 1.3 SW 20 32 11 17 1020.0 1019.0 1.0
11/04:00am 8.8 3.3 5.9 82 1.4 SW 24 37 13 20 1019.8 1018.8 1.0
11/03:30am 9.1 3.4 5.1 76 1.8 SSW 24 35 13 19 1019.5 1018.5 1.0
11/03:00am 9.1 4.1 4.5 73 2.1 SW 20 32 11 17 1019.6 1018.6 1.0
11/02:30am 9.7 4.8 3.9 67 2.6 SW 19 32 10 17 1019.4 1018.4 1.0
11/02:00am 10.0 4.8 3.3 63 3.0 SW 20 32 11 17 1019.3 1018.3 1.0
11/01:30am 10.0 5.3 3.1 62 3.1 SW 17 24 9 13 1019.6 1018.6 1.0
11/01:00am 9.5 4.2 3.0 64 2.9 SW 20 35 11 19 1019.5 1018.5 1.0
11/12:30am 9.9 3.3 4.3 68 2.6 SW 28 50 15 27 1019.4 1018.4 1.0
11/12:00am 9.7 4.9 5.5 75 2.0 SW 20 35 11 19 1019.4 1018.4 1.0
 
Date/Time
CST
Temp
°C
App
Temp
°C
Dew
Point
°C
Rel
Hum
%
Delta-T
°C
Wind Press
QNH
hPa
Press
MSL
hPa
Rain since
9am
mm
Dir  Spd
km/h
Gust
km/h
Spd
kts
Gust
kts
10/11:30pm 10.1 5.3 5.5 73 2.2 SW 20 32 11 17 1019.4 1018.4 1.0
10/11:00pm 10.1 5.4 5.1 71 2.3 SW 19 32 10 17 1019.5 1018.5 1.0
10/10:30pm 10.6 6.2 4.7 67 2.7 SW 17 24 9 13 1019.5 1018.5 1.0
10/10:00pm 10.5 5.7 4.6 67 2.7 WSW 19 28 10 15 1019.3 1018.3 1.0
10/09:30pm 10.9 4.8 4.6 65 2.9 SW 26 43 14 23 1018.9 1017.9 1.0
10/09:00pm 10.8 5.9 4.0 63 3.1 SW 19 28 10 15 1018.9 1017.9 1.0
10/08:30pm 10.8 5.2 5.3 69 2.6 SW 24 46 13 25 1018.7 1017.7 1.0
10/08:00pm 10.9 6.2 5.0 67 2.8 SW 19 30 10 16 1018.3 1017.3 1.0
10/07:30pm 11.0 6.6 4.9 66 2.9 SW 17 24 9 13 1018.1 1017.1 1.0
10/07:00pm 11.5 5.9 5.6 67 2.8 SW 24 41 13 22 1017.7 1016.7 1.0
10/06:30pm 11.6 7.4 5.9 68 2.7 WSW 17 24 9 13 1017.3 1016.2 1.0
10/06:00pm 11.3 6.7 5.8 69 2.6 SW 19 28 10 15 1016.9 1015.9 1.0
10/05:30pm 12.0 6.9 5.9 66 2.9 SW 22 35 12 19 1016.7 1015.7 1.0
10/05:09pm 12.2 5.9 5.8 65 3.1 SW 28 46 15 25 1016.4 1015.4 1.0
10/05:00pm 13.0 6.3 5.4 60 3.7 WSW 30 43 16 23 1016.2 1015.2 1.0
10/04:30pm 15.0 8.9 5.0 51 4.8 WSW 26 37 14 20 1016.1 1015.1 1.0
10/04:00pm 14.9 9.0 5.7 54 4.5 SW 26 39 14 21 1016.0 1015.0 1.0
10/03:30pm 14.3 9.0 6.6 60 3.8 SW 24 39 13 21 1015.8 1014.8 1.0
10/03:00pm 14.4 9.2 7.2 62 3.6 WSW 24 37 13 20 1015.7 1014.6 1.0
10/02:30pm 16.3 11.4 8.3 59 4.2 WSW 24 44 13 24 1015.3 1014.2 1.0
10/02:00pm 15.6 11.1 10.2 70 2.9 WSW 24 37 13 20 1015.3 1014.2 1.0
10/01:30pm 14.1 10.3 9.9 76 2.2 SW 20 32 11 17 1015.5 1014.4 1.0
10/01:00pm 14.4 11.5 9.6 73 2.5 SW 15 30 8 16 1015.5 1014.4 0.6
10/12:30pm 12.9 7.9 9.5 80 1.8 SSW 26 37 14 20 1015.7 1014.6 0.4
10/12:00pm 15.3 10.9 8.8 65 3.4 WSW 22 35 12 19 1015.5 1014.4 0.4
10/11:30am 14.2 9.8 8.8 70 2.8 WSW 22 35 12 19 1015.6 1014.5 0.4
10/11:00am 14.3 9.5 8.9 70 2.8 WSW 24 35 13 19 1015.6 1014.5 0.4
10/10:30am 14.1 9.1 7.9 66 3.2 SW 24 39 13 21 1015.7 1014.6 0.4
10/10:00am 12.1 8.3 8.9 81 1.6 WSW 19 30 10 16 1015.9 1014.9 0.4
10/09:31am 11.1 5.6 9.0 87 1.1 SW 28 56 15 30 1015.6 1014.5 0.4
10/09:30am 11.6 6.6 9.5 87 1.1 SW 26 41 14 22 1015.7 1014.6 0.2
10/09:00am 11.9 8.4 10.3 90 0.8 WSW 19 30 10 16 1015.5 1014.4 0.2
10/08:30am 10.7 7.5 9.8 94 0.5 SW 17 24 9 13 1015.3 1014.2 0.2
10/08:00am 10.7 7.5 10.1 96 0.3 SW 17 28 9 15 1014.8 1013.8 0.2
10/07:30am 10.5 6.3 9.6 94 0.5 WSW 22 33 12 18 1014.1 1013.1 0.2
10/07:00am 9.8 5.8 9.2 96 0.3 WSW 20 32 11 17 1013.9 1012.8 0.2
10/06:35am 9.9 4.5 9.4 97 0.3 WSW 28 46 15 25 1013.7 1012.6 0.2
10/06:30am 10.0 5.7 9.5 97 0.3 WSW 22 37 12 20 1013.7 1012.6 0.2
10/06:00am 9.7 6.7 9.4 98 0.2 WSW 15 20 8 11 1013.7 1012.6 0.0
10/05:30am 9.9 6.9 9.4 97 0.3 WSW 15 26 8 14 1013.4 1012.3 0.0
10/05:00am 9.9 6.9 9.1 95 0.4 W 15 22 8 12 1013.2 1012.1 0.0
10/04:30am 10.4 6.4 8.3 87 1.1 WSW 19 35 10 19 1013.1 1012.0 0.0
10/04:00am 10.9 6.7 7.4 79 1.7 WSW 19 28 10 15 1012.9 1011.9 0.0
10/03:30am 11.0 6.3 6.2 72 2.3 WSW 20 28 11 15 1012.9 1011.9 0.0
10/03:00am 11.4 6.8 5.7 68 2.7 W 19 35 10 19 1012.9 1011.9 0.0
10/02:30am 10.9 7.2 6.5 74 2.1 WSW 15 22 8 12 1013.3 1012.2 0.0
10/02:00am 10.8 6.8 6.7 76 2.0 WSW 17 22 9 12 1013.2 1012.1 0.0
10/01:30am 11.4 7.5 6.9 74 2.2 WSW 17 28 9 15 1013.4 1012.3 0.0
10/01:00am 11.3 7.0 6.8 74 2.2 WSW 19 26 10 14 1013.6 1012.5 0.0
10/12:30am 11.2 7.1 6.1 71 2.5 WSW 17 22 9 12 1013.5 1012.4 0.0
10/12:00am 11.0 7.5 5.5 69 2.6 WSW 13 19 7 10 1013.6 1012.5 0.0
 
Date/Time
CST
Temp
°C
App
Temp
°C
Dew
Point
°C
Rel
Hum
%
Delta-T
°C
Wind Press
QNH
hPa
Press
MSL
hPa
Rain since
9am
mm
Dir  Spd
km/h
Gust
km/h
Spd
kts
Gust
kts
09/11:30pm 11.1 8.0 5.4 68 2.7 SW 11 15 6 8 1013.7 1012.6 0.0
09/11:00pm 11.6 8.0 5.0 64 3.1 SW 13 19 7 10 1014.0 1012.9 0.0
09/10:30pm 11.5 7.5 4.7 63 3.2 SW 15 20 8 11 1014.2 1013.2 0.0
09/10:00pm 11.2 6.8 4.7 64 3.0 SW 17 22 9 12 1014.1 1013.1 0.0
09/09:30pm 10.8 6.4 4.9 67 2.8 SW 17 22 9 12 1014.2 1013.2 0.0
09/09:00pm 10.9 6.6 5.2 68 2.7 SSW 17 22 9 12 1014.1 1013.1 0.0
09/08:30pm 11.4 7.6 5.7 68 2.7 SSW 15 20 8 11 1014.0 1012.9 0.0
09/08:00pm 11.6 7.9 6.5 71 2.5 SSW 15 20 8 11 1013.8 1012.7 0.0
09/07:30pm 12.3 8.0 7.0 70 2.6 SSW 19 28 10 15 1013.5 1012.4 0.0
09/07:00pm 12.7 8.1 6.7 67 3.0 S 20 26 11 14 1013.2 1012.1 0.0
09/06:30pm 13.4 9.7 6.5 63 3.4 SSW 15 20 8 11 1012.8 1011.8 0.0
09/06:00pm 13.7 10.5 6.8 63 3.4 SSE 13 17 7 9 1012.4 1011.4 0.0
09/05:30pm 15.1 11.2 5.3 52 4.8 S 15 22 8 12 1012.0 1010.9 0.0
09/05:00pm 16.1 13.0 5.4 49 5.3 SSE 11 19 6 10 1011.9 1010.8 0.0
09/04:30pm 17.1 13.5 5.1 45 5.9 SSE 13 20 7 11 1011.9 1010.8 0.0
09/04:00pm 16.2 11.5 5.2 48 5.4 SE 19 24 10 13 1011.9 1010.8 0.0
09/03:30pm 18.3 15.7 6.2 45 6.1 S 9 15 5 8 1012.0 1010.9 0.0
09/03:00pm 17.8 14.8 6.0 46 5.9 SSE 11 19 6 10 1011.9 1010.8 0.0
09/02:30pm 16.8 14.2 6.0 49 5.4 SE 9 15 5 8 1012.0 1010.9 0.0
09/02:00pm 16.9 14.2 5.5 47 5.6 SSE 9 17 5 9 1012.4 1011.4 0.0
09/01:30pm 17.6 15.0 5.9 46 5.9 SW 9 13 5 7 1012.7 1011.7 0.0
09/01:00pm 18.0 14.5 5.6 44 6.2 WNW 13 20 7 11 1013.4 1012.3 0.0
09/12:30pm 16.6 14.0 6.1 50 5.3 S 9 17 5 9 1013.4 1012.3 0.0
09/12:00pm 15.4 11.9 5.6 52 4.8 S 13 22 7 12 1013.5 1012.4 0.0
09/11:30am 15.1 11.3 7.6 61 3.8 SSE 17 28 9 15 1013.6 1012.5 0.0
09/11:00am 14.3 10.8 7.4 63 3.5 S 15 20 8 11 1014.1 1013.1 0.0
09/10:30am 13.5 10.5 7.5 67 3.0 SSE 13 19 7 10 1014.3 1013.3 0.0
09/10:00am 13.0 9.2 7.7 70 2.7 SSE 17 22 9 12 1014.3 1013.3 0.0
09/09:30am 13.1 9.6 8.8 75 2.2 SSE 17 24 9 13 1014.2 1013.2 0.0
09/09:00am 12.5 8.6 8.8 78 1.9 SSE 19 26 10 14 1014.4 1013.4 0.2
09/08:30am 12.5 7.7 9.0 79 1.8 SSE 24 32 13 17 1013.9 1012.8 0.2
09/08:00am 12.1 8.3 9.7 85 1.3 SSE 20 32 11 17 1013.4 1012.3 0.2
09/07:30am 11.6 7.1 10.0 90 0.8 SSE 24 35 13 19 1012.7 1011.7 0.2
09/07:00am 11.2 7.5 10.0 92 0.6 SSE 20 28 11 15 1012.6 1011.6 0.2
09/06:30am 11.3 7.6 10.0 92 0.7 SSE 20 30 11 16 1012.1 1011.0 0.2
09/06:00am 11.6 8.0 10.7 94 0.5 SSE 20 32 11 17 1011.9 1010.8 0.2
09/05:30am 11.7 7.5 11.2 97 0.3 SSE 24 33 13 18 1011.5 1010.4 0.2
09/05:00am 11.9 8.2 11.6 98 0.2 S 22 37 12 20 1011.4 1010.3 0.2
09/04:30am 12.1 8.1 11.8 98 0.2 S 24 32 13 17 1011.2 1010.1 0.2
09/04:00am 12.4 8.1 12.2 99 0.1 S 26 41 14 22 1010.8 1009.8 0.2
09/03:30am 13.1 9.4 12.8 98 0.2 S 24 32 13 17 1011.4 1010.3 0.2
09/03:00am 13.7 10.9 13.2 97 0.3 SSE 20 28 11 15 1010.9 1009.9 0.2
09/02:30am 14.0 11.3 13.4 96 0.3 S 20 28 11 15 1010.5 1009.4 0.2
09/02:00am 14.2 10.8 13.6 96 0.3 S 24 32 13 17 1010.5 1009.4 0.2
09/01:30am 14.2 11.0 13.2 94 0.6 SSW 22 30 12 16 1011.2 1010.1 0.2
09/01:00am 14.7 11.7 12.4 86 1.3 SSW 20 28 11 15 1011.3 1010.2 0.0
09/12:30am 15.6 14.1 11.8 78 2.1 SSE 11 17 6 9 1010.8 1009.8 0.0
09/12:00am 16.5 13.1 10.6 68 3.2 SSE 19 26 10 14 1010.8 1009.8 0.0
 
Date/Time
CST
Temp
°C
App
Temp
°C
Dew
Point
°C
Rel
Hum
%
Delta-T
°C
Wind Press
QNH
hPa
Press
MSL
hPa
Rain since
9am
mm
Dir  Spd
km/h
Gust
km/h
Spd
kts
Gust
kts
08/11:30pm 17.4 14.0 9.3 59 4.3 SSE 17 22 9 12 1010.9 1009.9 0.0
08/11:00pm 17.4 13.8 9.8 61 4.1 S 19 22 10 12 1010.9 1009.9 0.0
08/10:30pm 17.6 14.0 10.0 61 4.1 SSE 19 22 10 12 1011.1 1010.0 0.0
08/10:00pm 17.5 14.2 9.7 60 4.2 SSE 17 20 9 11 1010.6 1009.5 0.0
08/09:30pm 17.9 15.2 9.0 56 4.8 SSE 13 19 7 10 1010.5 1009.4 0.0
08/09:00pm 17.7 15.2 8.3 54 5.0 SE 11 17 6 9 1010.2 1009.1 0.0
08/08:30pm 18.0 15.7 7.4 50 5.5 ESE 9 13 5 7 1009.8 1008.7 0.0
08/08:00pm 19.3 16.5 5.0 39 7.1 SE 9 13 5 7 1009.7 1008.6 0.0
08/07:30pm 20.8 16.5 3.5 32 8.5 S 15 20 8 11 1009.7 1008.6 0.0
08/07:00pm 21.6 16.8 2.8 29 9.1 SW 17 22 9 12 1009.7 1008.6 0.0
08/06:30pm 21.8 17.6 3.9 31 8.9 SW 15 22 8 12 1009.5 1008.4 0.0
08/06:00pm 22.9 18.3 3.9 29 9.5 WSW 17 28 9 15 1009.2 1008.1 0.0
08/05:30pm 25.4 20.5 2.2 22 11.5 WSW 17 28 9 15 1008.7 1007.6 0.0
08/05:00pm 27.0 21.4 1.4 19 12.6 W 20 33 11 18 1008.8 1007.7 0.0
08/04:30pm 28.2 21.0 0.9 17 13.4 WSW 28 39 15 21 1008.6 1007.5 0.0

Latest Capital City Observations: Canberra | Sydney | Melbourne | Brisbane | Adelaide | Perth | Hobart | Darwin

Other formats

Comma delimited format used in spreadsheet applications
http://www.bom.gov.au/fwo/IDS60901/IDS60901.94678.axf

JavaScript Object Notation format (JSON) in row-major order
http://www.bom.gov.au/fwo/IDS60901/IDS60901.94678.json

Data quality

Most of these data are generated automatically and are frequently updated. Quality checks on data are not normally performed. It is possible for incorrect values to appear. Refer to information at About Latest Weather Observations and please check the disclaimer before using these data.